Terminal Aerodrome Forecast
Issued by NWS

Home | Current Version | Previous Version | Text Only | Print | Product List | Glossary On
Versions: 1 2 3 4 5 6 7 8 9 10 11 12 13 14 15 16 17 18 19 20 21 22 23 24 25 26 27 28 29 30 31 32 33 34 35 36 37 38
000
FTUS43 KDLH 220500
TAFHYR
TAF
KHYR 220537Z 2206/2306 VRB03KT P6SM VCSH OVC008
      TEMPO 2206/2208 5SM -SHRA BR OVC005
     FM220800 VRB02KT 2SM BR OVC006
      TEMPO 2209/2212 1/2SM FG VV003
     FM221500 VRB03KT 5SM BR OVC008
     FM221700 05003KT P6SM OVC015
     FM222000 05004KT P6SM BKN030
     FM230400 VRB02KT 6SM BR OVC013=

USA.gov is the U.S. government's official web portal to all federal, state and local government web resources and services.